sensor_id;sensor_type;location;lat;lon;timestamp;pressure;altitude;pressure_sealevel;temperature;humidity
70304;BME280;57712;48.752;11.348;2023-04-20T00:02:18;97507.91;;;3.32;100.00
70304;BME280;57712;48.752;11.348;2023-04-20T00:04:47;97503.59;;;3.24;100.00
70304;BME280;57712;48.752;11.348;2023-04-20T00:07:13;97508.09;;;3.13;100.00
70304;BME280;57712;48.752;11.348;2023-04-20T00:09:41;97514.31;;;3.17;100.00
70304;BME280;57712;48.752;11.348;2023-04-20T00:12:08;97518.94;;;3.13;100.00
70304;BME280;57712;48.752;11.348;2023-04-20T00:14:35;97512.69;;;3.09;100.00
70304;BME280;57712;48.752;11.348;2023-04-20T00:17:01;97503.09;;;3.15;100.00
70304;BME280;57712;48.752;11.348;2023-04-20T00:19:28;97503.03;;;3.11;100.00
70304;BME280;57712;48.752;11.348;2023-04-20T00:21:59;97500.31;;;3.08;100.00
70304;BME280;57712;48.752;11.348;2023-04-20T00:24:25;97488.66;;;3.04;100.00
70304;BME280;57712;48.752;11.348;2023-04-20T00:26:52;97493.22;;;2.96;100.00
70304;BME280;57712;48.752;11.348;2023-04-20T00:29:21;97486.25;;;2.95;100.00
70304;BME280;57712;48.752;11.348;2023-04-20T00:31:47;97480.06;;;2.95;100.00
70304;BME280;57712;48.752;11.348;2023-04-20T00:34:14;97480.09;;;2.98;100.00
70304;BME280;57712;48.752;11.348;2023-04-20T00:36:41;97483.94;;;2.97;100.00
70304;BME280;57712;48.752;11.348;2023-04-20T00:39:08;97472.72;;;2.95;100.00
70304;BME280;57712;48.752;11.348;2023-04-20T00:41:36;97462.66;;;2.96;100.00
70304;BME280;57712;48.752;11.348;2023-04-20T00:44:02;97457.66;;;2.98;100.00
70304;BME280;57712;48.752;11.348;2023-04-20T00:46:29;97461.81;;;2.88;100.00
70304;BME280;57712;48.752;11.348;2023-04-20T00:48:56;97460.75;;;2.96;100.00
70304;BME280;57712;48.752;11.348;2023-04-20T00:51:22;97451.84;;;2.96;100.00
70304;BME280;57712;48.752;11.348;2023-04-20T00:53:49;97446.81;;;2.94;100.00
70304;BME280;57712;48.752;11.348;2023-04-20T00:56:16;97449.13;;;2.96;100.00
70304;BME280;57712;48.752;11.348;2023-04-20T00:58:45;97436.00;;;2.94;100.00
70304;BME280;57712;48.752;11.348;2023-04-20T01:01:12;97433.59;;;2.89;100.00
70304;BME280;57712;48.752;11.348;2023-04-20T01:03:43;97432.41;;;2.86;100.00
70304;BME280;57712;48.752;11.348;2023-04-20T01:06:12;97430.41;;;2.80;100.00
70304;BME280;57712;48.752;11.348;2023-04-20T01:08:49;97433.53;;;2.82;100.00
70304;BME280;57712;48.752;11.348;2023-04-20T01:11:16;97430.06;;;2.81;100.00
70304;BME280;57712;48.752;11.348;2023-04-20T01:13:43;97432.78;;;2.85;100.00
70304;BME280;57712;48.752;11.348;2023-04-20T01:16:10;97416.47;;;2.78;100.00
70304;BME280;57712;48.752;11.348;2023-04-20T01:18:42;97403.28;;;2.73;100.00
70304;BME280;57712;48.752;11.348;2023-04-20T01:21:11;97396.38;;;2.75;100.00
70304;BME280;57712;48.752;11.348;2023-04-20T01:23:37;97397.44;;;2.71;100.00
70304;BME280;57712;48.752;11.348;2023-04-20T01:26:08;97397.09;;;2.72;100.00
70304;BME280;57712;48.752;11.348;2023-04-20T01:28:36;97400.97;;;2.71;100.00
70304;BME280;57712;48.752;11.348;2023-04-20T01:31:06;97395.56;;;2.71;100.00
70304;BME280;57712;48.752;11.348;2023-04-20T01:33:33;97394.41;;;2.72;100.00
70304;BME280;57712;48.752;11.348;2023-04-20T01:36:00;97397.13;;;2.76;100.00
70304;BME280;57712;48.752;11.348;2023-04-20T01:38:27;97387.84;;;2.73;100.00
70304;BME280;57712;48.752;11.348;2023-04-20T01:40:54;97381.28;;;2.74;100.00
70304;BME280;57712;48.752;11.348;2023-04-20T01:43:21;97392.91;;;2.78;100.00
70304;BME280;57712;48.752;11.348;2023-04-20T01:45:47;97379.28;;;2.68;100.00
70304;BME280;57712;48.752;11.348;2023-04-20T01:48:14;97388.66;;;2.77;100.00
70304;BME280;57712;48.752;11.348;2023-04-20T01:50:41;97382.44;;;2.73;100.00
70304;BME280;57712;48.752;11.348;2023-04-20T01:53:07;97387.50;;;2.78;100.00
70304;BME280;57712;48.752;11.348;2023-04-20T01:55:35;97382.44;;;2.73;100.00
70304;BME280;57712;48.752;11.348;2023-04-20T01:58:01;97379.38;;;2.78;100.00
70304;BME280;57712;48.752;11.348;2023-04-20T02:00:28;97378.66;;;2.81;100.00
70304;BME280;57712;48.752;11.348;2023-04-20T02:02:55;97379.31;;;2.71;100.00
70304;BME280;57712;48.752;11.348;2023-04-20T02:05:21;97370.38;;;2.67;100.00
70304;BME280;57712;48.752;11.348;2023-04-20T02:07:48;97371.53;;;2.66;100.00
70304;BME280;57712;48.752;11.348;2023-04-20T02:10:15;97379.72;;;2.73;100.00
70304;BME280;57712;48.752;11.348;2023-04-20T02:12:41;97374.72;;;2.75;100.00
70304;BME280;57712;48.752;11.348;2023-04-20T02:15:08;97377.03;;;2.73;100.00
70304;BME280;57712;48.752;11.348;2023-04-20T02:17:34;97374.63;;;2.68;100.00
70304;BME280;57712;48.752;11.348;2023-04-20T02:20:07;97385.16;;;2.77;100.00
70304;BME280;57712;48.752;11.348;2023-04-20T02:22:36;97378.53;;;2.71;100.00
70304;BME280;57712;48.752;11.348;2023-04-20T02:25:04;97373.91;;;2.71;100.00
70304;BME280;57712;48.752;11.348;2023-04-20T02:27:31;97378.88;;;2.66;100.00
70304;BME280;57712;48.752;11.348;2023-04-20T02:29:58;97379.25;;;2.64;100.00
70304;BME280;57712;48.752;11.348;2023-04-20T02:32:27;97375.38;;;2.65;100.00
70304;BME280;57712;48.752;11.348;2023-04-20T02:34:53;97371.94;;;2.68;100.00
70304;BME280;57712;48.752;11.348;2023-04-20T02:37:20;97381.53;;;2.62;100.00
70304;BME280;57712;48.752;11.348;2023-04-20T02:39:46;97374.59;;;2.61;100.00
70304;BME280;57712;48.752;11.348;2023-04-20T02:42:13;97369.63;;;2.70;100.00
70304;BME280;57712;48.752;11.348;2023-04-20T02:44:39;97367.69;;;2.67;100.00
70304;BME280;57712;48.752;11.348;2023-04-20T02:47:06;97359.91;;;2.62;100.00
70304;BME280;57712;48.752;11.348;2023-04-20T02:49:33;97356.00;;;2.59;100.00
70304;BME280;57712;48.752;11.348;2023-04-20T02:51:59;97356.47;;;2.65;100.00
70304;BME280;57712;48.752;11.348;2023-04-20T02:54:26;97360.41;;;2.71;100.00
70304;BME280;57712;48.752;11.348;2023-04-20T02:56:52;97360.31;;;2.64;100.00
70304;BME280;57712;48.752;11.348;2023-04-20T02:59:19;97363.41;;;2.66;100.00
70304;BME280;57712;48.752;11.348;2023-04-20T03:01:45;97358.41;;;2.68;100.00
70304;BME280;57712;48.752;11.348;2023-04-20T03:04:12;97357.63;;;2.64;100.00
70304;BME280;57712;48.752;11.348;2023-04-20T03:06:39;97363.09;;;2.71;100.00
70304;BME280;57712;48.752;11.348;2023-04-20T03:09:05;97355.72;;;2.68;100.00
70304;BME280;57712;48.752;11.348;2023-04-20T03:11:33;97356.88;;;2.67;100.00
70304;BME280;57712;48.752;11.348;2023-04-20T03:13:59;97363.09;;;2.71;100.00
70304;BME280;57712;48.752;11.348;2023-04-20T03:16:26;97353.88;;;2.76;100.00
70304;BME280;57712;48.752;11.348;2023-04-20T03:18:52;97361.94;;;2.72;100.00
70304;BME280;57712;48.752;11.348;2023-04-20T03:21:19;97356.94;;;2.74;100.00
70304;BME280;57712;48.752;11.348;2023-04-20T03:23:46;97365.47;;;2.76;100.00
70304;BME280;57712;48.752;11.348;2023-04-20T03:26:13;97363.91;;;2.75;100.00
70304;BME280;57712;48.752;11.348;2023-04-20T03:28:40;97351.56;;;2.78;100.00
70304;BME280;57712;48.752;11.348;2023-04-20T03:31:07;97349.22;;;2.76;100.00
70304;BME280;57712;48.752;11.348;2023-04-20T03:33:34;97352.34;;;2.78;100.00
70304;BME280;57712;48.752;11.348;2023-04-20T03:36:00;97355.44;;;2.80;100.00
70304;BME280;57712;48.752;11.348;2023-04-20T03:38:27;97351.66;;;2.85;100.00
70304;BME280;57712;48.752;11.348;2023-04-20T03:40:53;97355.09;;;2.82;100.00
70304;BME280;57712;48.752;11.348;2023-04-20T03:43:20;97354.75;;;2.87;100.00
70304;BME280;57712;48.752;11.348;2023-04-20T03:45:47;97350.03;;;2.80;100.00
70304;BME280;57712;48.752;11.348;2023-04-20T03:48:14;97351.72;;;2.92;100.00
70304;BME280;57712;48.752;11.348;2023-04-20T03:50:41;97348.53;;;2.83;100.00
70304;BME280;57712;48.752;11.348;2023-04-20T03:53:08;97348.22;;;2.92;100.00
70304;BME280;57712;48.752;11.348;2023-04-20T03:55:34;97356.31;;;2.92;100.00
70304;BME280;57712;48.752;11.348;2023-04-20T03:58:01;97354.94;;;3.05;100.00
70304;BME280;57712;48.752;11.348;2023-04-20T04:00:28;97358.03;;;3.07;100.00
70304;BME280;57712;48.752;11.348;2023-04-20T04:02:55;97351.94;;;3.17;100.00
70304;BME280;57712;48.752;11.348;2023-04-20T04:05:23;97353.84;;;3.13;100.00
70304;BME280;57712;48.752;11.348;2023-04-20T04:07:50;97350.38;;;3.16;100.00
70304;BME280;57712;48.752;11.348;2023-04-20T04:10:17;97360.81;;;3.14;100.00
70304;BME280;57712;48.752;11.348;2023-04-20T04:12:44;97355.06;;;3.19;100.00
70304;BME280;57712;48.752;11.348;2023-04-20T04:15:11;97355.81;;;3.19;100.00
70304;BME280;57712;48.752;11.348;2023-04-20T04:17:37;97351.19;;;3.20;100.00
70304;BME280;57712;48.752;11.348;2023-04-20T04:20:05;97357.44;;;3.24;100.00
70304;BME280;57712;48.752;11.348;2023-04-20T04:22:34;97363.53;;;3.17;100.00
70304;BME280;57712;48.752;11.348;2023-04-20T04:25:01;97366.69;;;3.23;100.00
70304;BME280;57712;48.752;11.348;2023-04-20T04:27:28;97349.78;;;3.37;100.00
70304;BME280;57712;48.752;11.348;2023-04-20T04:30:00;97360.53;;;3.26;100.00
70304;BME280;57712;48.752;11.348;2023-04-20T04:32:28;97360.56;;;3.30;100.00
70304;BME280;57712;48.752;11.348;2023-04-20T04:34:55;97367.88;;;3.26;100.00
70304;BME280;57712;48.752;11.348;2023-04-20T04:37:22;97359.78;;;3.29;100.00
70304;BME280;57712;48.752;11.348;2023-04-20T04:39:49;97357.19;;;3.43;100.00
70304;BME280;57712;48.752;11.348;2023-04-20T04:42:16;97350.56;;;3.34;100.00
70304;BME280;57712;48.752;11.348;2023-04-20T04:44:43;97352.19;;;3.45;100.00
70304;BME280;57712;48.752;11.348;2023-04-20T04:47:10;97343.63;;;3.43;100.00
70304;BME280;57712;48.752;11.348;2023-04-20T04:49:39;97350.63;;;3.44;100.00
70304;BME280;57712;48.752;11.348;2023-04-20T04:52:07;97345.94;;;3.41;100.00
70304;BME280;57712;48.752;11.348;2023-04-20T04:54:34;97349.06;;;3.43;100.00
70304;BME280;57712;48.752;11.348;2023-04-20T04:57:01;97354.53;;;3.54;100.00
70304;BME280;57712;48.752;11.348;2023-04-20T04:59:28;97356.91;;;3.56;100.00
70304;BME280;57712;48.752;11.348;2023-04-20T05:01:54;97353.81;;;3.57;100.00
70304;BME280;57712;48.752;11.348;2023-04-20T05:04:21;97358.50;;;3.64;100.00
70304;BME280;57712;48.752;11.348;2023-04-20T05:06:48;97364.72;;;3.68;100.00
70304;BME280;57712;48.752;11.348;2023-04-20T05:09:15;97362.47;;;3.77;100.00
70304;BME280;57712;48.752;11.348;2023-04-20T05:11:42;97361.97;;;3.64;100.00
70304;BME280;57712;48.752;11.348;2023-04-20T05:14:08;97358.94;;;3.69;100.00
70304;BME280;57712;48.752;11.348;2023-04-20T05:16:35;97365.56;;;3.79;100.00
70304;BME280;57712;48.752;11.348;2023-04-20T05:19:02;97362.09;;;3.79;100.00
70304;BME280;57712;48.752;11.348;2023-04-20T05:21:29;97364.03;;;3.78;100.00
70304;BME280;57712;48.752;11.348;2023-04-20T05:23:56;97362.03;;;3.75;100.00
70304;BME280;57712;48.752;11.348;2023-04-20T05:26:22;97362.44;;;3.73;100.00
70304;BME280;57712;48.752;11.348;2023-04-20T05:28:49;97364.09;;;3.92;100.00
70304;BME280;57712;48.752;11.348;2023-04-20T05:31:16;97360.94;;;3.83;100.00
70304;BME280;57712;48.752;11.348;2023-04-20T05:33:43;97365.59;;;3.83;100.00
70304;BME280;57712;48.752;11.348;2023-04-20T05:36:09;97361.06;;;3.97;100.00
70304;BME280;57712;48.752;11.348;2023-04-20T05:38:36;97360.94;;;3.80;100.00
70304;BME280;57712;48.752;11.348;2023-04-20T05:41:03;97359.38;;;3.79;100.00
70304;BME280;57712;48.752;11.348;2023-04-20T05:43:30;97357.91;;;3.95;100.00
70304;BME280;57712;48.752;11.348;2023-04-20T05:45:56;97359.53;;;4.03;100.00
70304;BME280;57712;48.752;11.348;2023-04-20T05:48:24;97360.69;;;4.02;100.00
70304;BME280;57712;48.752;11.348;2023-04-20T05:50:55;97346.06;;;4.18;100.00
70304;BME280;57712;48.752;11.348;2023-04-20T05:53:22;97346.41;;;4.16;100.00
70304;BME280;57712;48.752;11.348;2023-04-20T05:55:48;97354.91;;;4.11;100.00
70304;BME280;57712;48.752;11.348;2023-04-20T05:58:15;97343.34;;;4.25;100.00
70304;BME280;57712;48.752;11.348;2023-04-20T06:00:42;97343.41;;;4.28;100.00
70304;BME280;57712;48.752;11.348;2023-04-20T06:03:09;97342.66;;;4.42;100.00
70304;BME280;57712;48.752;11.348;2023-04-20T06:05:36;97341.13;;;4.45;100.00
70304;BME280;57712;48.752;11.348;2023-04-20T06:08:03;97341.50;;;4.43;100.00
70304;BME280;57712;48.752;11.348;2023-04-20T06:10:30;97344.19;;;4.36;100.00
70304;BME280;57712;48.752;11.348;2023-04-20T06:12:59;97341.50;;;4.47;100.00
70304;BME280;57712;48.752;11.348;2023-04-20T06:15:26;97342.72;;;4.56;100.00
70304;BME280;57712;48.752;11.348;2023-04-20T06:17:52;97352.00;;;4.55;100.00
70304;BME280;57712;48.752;11.348;2023-04-20T06:20:19;97350.13;;;4.70;100.00
70304;BME280;57712;48.752;11.348;2023-04-20T06:22:48;97352.03;;;4.66;100.00
70304;BME280;57712;48.752;11.348;2023-04-20T06:25:14;97345.09;;;4.76;100.00
70304;BME280;57712;48.752;11.348;2023-04-20T06:27:41;97347.06;;;4.86;100.00
70304;BME280;57712;48.752;11.348;2023-04-20T06:30:08;97345.16;;;5.18;100.00
70304;BME280;57712;48.752;11.348;2023-04-20T06:32:35;97345.94;;;5.47;100.00
70304;BME280;57712;48.752;11.348;2023-04-20T06:35:04;97341.31;;;5.34;100.00
70304;BME280;57712;48.752;11.348;2023-04-20T06:37:31;97341.28;;;5.19;100.00
70304;BME280;57712;48.752;11.348;2023-04-20T06:40:00;97338.19;;;5.25;100.00
70304;BME280;57712;48.752;11.348;2023-04-20T06:42:26;97335.84;;;5.41;100.00
70304;BME280;57712;48.752;11.348;2023-04-20T06:44:53;97338.19;;;5.39;100.00
70304;BME280;57712;48.752;11.348;2023-04-20T06:47:21;97338.19;;;5.46;100.00
70304;BME280;57712;48.752;11.348;2023-04-20T06:49:48;97342.84;;;5.45;100.00
70304;BME280;57712;48.752;11.348;2023-04-20T06:52:14;97340.16;;;5.42;100.00
70304;BME280;57712;48.752;11.348;2023-04-20T06:54:41;97342.84;;;5.28;100.00
70304;BME280;57712;48.752;11.348;2023-04-20T06:57:07;97334.31;;;5.33;100.00
70304;BME280;57712;48.752;11.348;2023-04-20T06:59:34;97325.78;;;5.63;100.00
70304;BME280;57712;48.752;11.348;2023-04-20T07:02:00;97320.28;;;5.80;100.00
70304;BME280;57712;48.752;11.348;2023-04-20T07:04:27;97321.81;;;6.10;100.00
70304;BME280;57712;48.752;11.348;2023-04-20T07:06:54;97311.31;;;6.08;100.00
70304;BME280;57712;48.752;11.348;2023-04-20T07:09:21;97314.84;;;6.05;100.00
70304;BME280;57712;48.752;11.348;2023-04-20T07:11:48;97307.69;;;6.40;100.00
70304;BME280;57712;48.752;11.348;2023-04-20T07:14:15;97310.78;;;6.46;100.00
70304;BME280;57712;48.752;11.348;2023-04-20T07:16:41;97296.97;;;6.08;100.00
70304;BME280;57712;48.752;11.348;2023-04-20T07:19:08;97301.03;;;6.52;100.00
70304;BME280;57712;48.752;11.348;2023-04-20T07:21:34;97297.97;;;6.46;100.00
70304;BME280;57712;48.752;11.348;2023-04-20T07:24:01;97295.38;;;6.14;100.00
70304;BME280;57712;48.752;11.348;2023-04-20T07:26:28;97304.66;;;6.24;100.00
70304;BME280;57712;48.752;11.348;2023-04-20T07:28:54;97314.81;;;6.16;100.00
70304;BME280;57712;48.752;11.348;2023-04-20T07:31:21;97307.69;;;6.44;100.00
70304;BME280;57712;48.752;11.348;2023-04-20T07:33:50;97298.88;;;6.18;100.00
70304;BME280;57712;48.752;11.348;2023-04-20T07:36:16;97307.03;;;6.11;100.00
70304;BME280;57712;48.752;11.348;2023-04-20T07:38:43;97307.81;;;6.12;100.00
70304;BME280;57712;48.752;11.348;2023-04-20T07:41:10;97292.63;;;6.21;100.00
70304;BME280;57712;48.752;11.348;2023-04-20T07:43:37;97300.25;;;6.51;100.00
70304;BME280;57712;48.752;11.348;2023-04-20T07:46:08;97302.84;;;6.80;100.00
70304;BME280;57712;48.752;11.348;2023-04-20T07:48:37;97295.59;;;6.52;100.00
70304;BME280;57712;48.752;11.348;2023-04-20T07:51:04;97292.78;;;6.66;100.00
70304;BME280;57712;48.752;11.348;2023-04-20T07:53:31;97296.41;;;6.49;100.00
70304;BME280;57712;48.752;11.348;2023-04-20T07:55:58;97299.06;;;6.56;100.00
70304;BME280;57712;48.752;11.348;2023-04-20T07:58:25;97291.25;;;6.69;100.00
70304;BME280;57712;48.752;11.348;2023-04-20T08:00:52;97290.22;;;7.04;100.00
70304;BME280;57712;48.752;11.348;2023-04-20T08:03:18;97294.25;;;6.81;100.00
70304;BME280;57712;48.752;11.348;2023-04-20T08:05:46;97285.00;;;6.72;100.00
70304;BME280;57712;48.752;11.348;2023-04-20T08:08:12;97297.00;;;6.81;100.00
70304;BME280;57712;48.752;11.348;2023-04-20T08:10:39;97301.22;;;6.86;100.00
70304;BME280;57712;48.752;11.348;2023-04-20T08:13:06;97293.59;;;6.63;100.00
70304;BME280;57712;48.752;11.348;2023-04-20T08:15:33;97295.84;;;6.75;100.00
70304;BME280;57712;48.752;11.348;2023-04-20T08:17:59;97298.09;;;6.87;100.00
70304;BME280;57712;48.752;11.348;2023-04-20T08:20:26;97297.50;;;6.55;100.00
70304;BME280;57712;48.752;11.348;2023-04-20T08:22:53;97297.56;;;6.48;100.00
70304;BME280;57712;48.752;11.348;2023-04-20T08:25:19;97292.16;;;6.41;100.00
70304;BME280;57712;48.752;11.348;2023-04-20T08:27:46;97294.84;;;6.48;100.00
70304;BME280;57712;48.752;11.348;2023-04-20T08:30:12;97296.88;;;6.29;100.00
70304;BME280;57712;48.752;11.348;2023-04-20T08:32:39;97296.94;;;6.15;100.00
70304;BME280;57712;48.752;11.348;2023-04-20T08:35:06;97301.28;;;5.95;100.00
70304;BME280;57712;48.752;11.348;2023-04-20T08:37:33;97297.00;;;5.87;100.00
70304;BME280;57712;48.752;11.348;2023-04-20T08:40:00;97311.75;;;5.86;100.00
70304;BME280;57712;48.752;11.348;2023-04-20T08:42:27;97297.75;;;5.87;100.00
70304;BME280;57712;48.752;11.348;2023-04-20T08:44:53;97320.28;;;5.88;100.00
70304;BME280;57712;48.752;11.348;2023-04-20T08:47:20;97307.88;;;5.79;100.00
70304;BME280;57712;48.752;11.348;2023-04-20T08:49:47;97318.00;;;5.68;100.00
70304;BME280;57712;48.752;11.348;2023-04-20T08:52:19;97316.81;;;5.84;100.00
70304;BME280;57712;48.752;11.348;2023-04-20T08:54:45;97313.31;;;5.69;100.00
70304;BME280;57712;48.752;11.348;2023-04-20T08:57:22;97314.88;;;5.70;100.00
70304;BME280;57712;48.752;11.348;2023-04-20T08:59:48;97318.78;;;5.65;100.00
70304;BME280;57712;48.752;11.348;2023-04-20T09:02:15;97312.56;;;5.68;100.00
70304;BME280;57712;48.752;11.348;2023-04-20T09:04:42;97319.56;;;5.55;100.00
70304;BME280;57712;48.752;11.348;2023-04-20T09:07:27;97311.03;;;5.64;100.00
70304;BME280;57712;48.752;11.348;2023-04-20T09:09:58;97316.44;;;5.67;100.00
70304;BME280;57712;48.752;11.348;2023-04-20T09:12:25;97319.53;;;5.76;100.00
70304;BME280;57712;48.752;11.348;2023-04-20T09:14:52;97314.47;;;5.78;100.00
70304;BME280;57712;48.752;11.348;2023-04-20T09:17:35;97320.28;;;5.80;100.00
70304;BME280;57712;48.752;11.348;2023-04-20T09:20:02;97318.38;;;5.77;100.00
70304;BME280;57712;48.752;11.348;2023-04-20T09:22:32;97317.59;;;5.73;100.00
70304;BME280;57712;48.752;11.348;2023-04-20T09:25:10;97316.44;;;5.67;100.00
70304;BME280;57712;48.752;11.348;2023-04-20T09:27:37;97312.56;;;5.68;100.00
70304;BME280;57712;48.752;11.348;2023-04-20T09:30:04;97312.59;;;5.54;100.00
70304;BME280;57712;48.752;11.348;2023-04-20T09:32:31;97313.31;;;5.69;100.00
70304;BME280;57712;48.752;11.348;2023-04-20T09:34:58;97307.13;;;5.61;100.00
70304;BME280;57712;48.752;11.348;2023-04-20T09:37:25;97313.34;;;5.58;100.00
70304;BME280;57712;48.752;11.348;2023-04-20T09:39:54;97311.03;;;5.53;100.00
70304;BME280;57712;48.752;11.348;2023-04-20T09:42:26;97294.72;;;5.46;100.00
70304;BME280;57712;48.752;11.348;2023-04-20T09:44:53;97285.41;;;5.65;100.00
70304;BME280;57712;48.752;11.348;2023-04-20T09:47:21;97296.28;;;5.54;100.00
70304;BME280;57712;48.752;11.348;2023-04-20T09:49:48;97289.28;;;5.64;100.00
70304;BME280;57712;48.752;11.348;2023-04-20T09:52:16;97290.81;;;5.75;100.00
70304;BME280;57712;48.752;11.348;2023-04-20T09:54:44;97286.13;;;5.72;100.00
70304;BME280;57712;48.752;11.348;2023-04-20T09:57:12;97284.59;;;5.68;100.00
70304;BME280;57712;48.752;11.348;2023-04-20T09:59:42;97276.81;;;5.80;100.00
70304;BME280;57712;48.752;11.348;2023-04-20T10:02:10;97273.75;;;5.68;100.00
70304;BME280;57712;48.752;11.348;2023-04-20T10:04:56;97264.41;;;5.72;100.00
70304;BME280;57712;48.752;11.348;2023-04-20T10:07:27;97260.47;;;5.88;100.00
70304;BME280;57712;48.752;11.348;2023-04-20T10:10:08;97269.75;;;6.15;100.00
70304;BME280;57712;48.752;11.348;2023-04-20T10:12:51;97264.31;;;6.15;100.00
70304;BME280;57712;48.752;11.348;2023-04-20T10:15:18;97278.34;;;5.96;100.00
70304;BME280;57712;48.752;11.348;2023-04-20T10:17:47;97272.06;;;6.13;100.00
70304;BME280;57712;48.752;11.348;2023-04-20T10:20:26;97272.13;;;5.99;100.00
70304;BME280;57712;48.752;11.348;2023-04-20T10:23:05;97265.13;;;6.05;100.00
70304;BME280;57712;48.752;11.348;2023-04-20T10:25:32;97256.91;;;6.16;100.00
70304;BME280;57712;48.752;11.348;2023-04-20T10:28:01;97251.03;;;6.24;100.00
70304;BME280;57712;48.752;11.348;2023-04-20T10:30:32;97266.59;;;6.20;100.00
70304;BME280;57712;48.752;11.348;2023-04-20T10:33:05;97251.09;;;6.17;100.00
70304;BME280;57712;48.752;11.348;2023-04-20T10:35:49;97220.44;;;6.06;100.00
70304;BME280;57712;48.752;11.348;2023-04-20T10:38:33;97208.03;;;6.01;100.00
70304;BME280;57712;48.752;11.348;2023-04-20T10:41:08;97207.22;;;6.08;100.00
70304;BME280;57712;48.752;11.348;2023-04-20T10:43:35;97222.41;;;6.05;100.00
70304;BME280;57712;48.752;11.348;2023-04-20T10:48:54;97226.25;;;6.15;100.00
70304;BME280;57712;48.752;11.348;2023-04-20T10:51:22;97222.28;;;6.27;100.00
70304;BME280;57712;48.752;11.348;2023-04-20T10:54:03;97215.34;;;6.15;100.00
70304;BME280;57712;48.752;11.348;2023-04-20T10:56:40;97208.41;;;6.07;100.00
70304;BME280;57712;48.752;11.348;2023-04-20T10:59:08;97204.84;;;6.14;100.00
70304;BME280;57712;48.752;11.348;2023-04-20T11:01:36;97211.06;;;6.14;100.00
70304;BME280;57712;48.752;11.348;2023-04-20T11:04:03;97201.75;;;6.15;100.00
70304;BME280;57712;48.752;11.348;2023-04-20T11:06:30;97197.47;;;6.18;100.00
70304;BME280;57712;48.752;11.348;2023-04-20T11:08:57;97198.97;;;6.22;100.00
70304;BME280;57712;48.752;11.348;2023-04-20T11:11:26;97191.19;;;6.28;100.00
70304;BME280;57712;48.752;11.348;2023-04-20T11:14:10;97196.56;;;6.39;100.00
70304;BME280;57712;48.752;11.348;2023-04-20T11:16:38;97188.09;;;6.22;100.00
70304;BME280;57712;48.752;11.348;2023-04-20T11:19:25;97186.53;;;6.28;100.00
70304;BME280;57712;48.752;11.348;2023-04-20T11:21:52;97186.75;;;6.52;100.00
70304;BME280;57712;48.752;11.348;2023-04-20T11:24:20;97186.38;;;6.50;100.00
70304;BME280;57712;48.752;11.348;2023-04-20T11:26:48;97188.06;;;6.29;100.00
70304;BME280;57712;48.752;11.348;2023-04-20T11:31:57;97174.00;;;6.42;100.00
70304;BME280;57712;48.752;11.348;2023-04-20T11:34:24;97176.31;;;6.43;100.00
70304;BME280;57712;48.752;11.348;2023-04-20T11:36:51;97180.25;;;6.39;100.00
70304;BME280;57712;48.752;11.348;2023-04-20T11:39:25;97186.06;;;6.41;100.00
70304;BME280;57712;48.752;11.348;2023-04-20T11:41:53;97188.75;;;6.48;100.00
70304;BME280;57712;48.752;11.348;2023-04-20T11:44:20;97198.78;;;6.58;100.00
70304;BME280;57712;48.752;11.348;2023-04-20T11:46:47;97201.03;;;6.66;100.00
70304;BME280;57712;48.752;11.348;2023-04-20T11:49:19;97202.56;;;6.71;100.00
70304;BME280;57712;48.752;11.348;2023-04-20T11:51:46;97194.69;;;6.84;100.00
70304;BME280;57712;48.752;11.348;2023-04-20T11:54:13;97197.00;;;6.85;100.00
70304;BME280;57712;48.752;11.348;2023-04-20T11:56:40;97184.47;;;6.99;100.00
70304;BME280;57712;48.752;11.348;2023-04-20T11:59:07;97188.38;;;6.94;100.00
70304;BME280;57712;48.752;11.348;2023-04-20T12:01:34;97176.66;;;7.01;100.00
70304;BME280;57712;48.752;11.348;2023-04-20T12:04:04;97182.03;;;7.08;100.00
70304;BME280;57712;48.752;11.348;2023-04-20T12:06:31;97171.88;;;7.12;100.00
70304;BME280;57712;48.752;11.348;2023-04-20T12:08:59;97162.53;;;7.13;100.00
70304;BME280;57712;48.752;11.348;2023-04-20T12:11:26;97158.47;;;7.28;100.00
70304;BME280;57712;48.752;11.348;2023-04-20T12:13:55;97148.75;;;7.31;100.00
70304;BME280;57712;48.752;11.348;2023-04-20T12:16:22;97145.84;;;7.45;100.00
70304;BME280;57712;48.752;11.348;2023-04-20T12:18:48;97150.00;;;7.57;100.00
70304;BME280;57712;48.752;11.348;2023-04-20T12:21:15;97151.09;;;7.63;100.00
70304;BME280;57712;48.752;11.348;2023-04-20T12:23:42;97147.88;;;7.71;100.00
70304;BME280;57712;48.752;11.348;2023-04-20T12:26:09;97134.63;;;7.70;100.00
70304;BME280;57712;48.752;11.348;2023-04-20T12:28:36;97127.94;;;7.78;100.00
70304;BME280;57712;48.752;11.348;2023-04-20T12:31:02;97128.41;;;7.73;100.00
70304;BME280;57712;48.752;11.348;2023-04-20T12:33:29;97128.25;;;7.84;100.00
70304;BME280;57712;48.752;11.348;2023-04-20T12:35:56;97114.69;;;8.07;100.00
70304;BME280;57712;48.752;11.348;2023-04-20T12:38:23;97131.25;;;8.20;100.00
70304;BME280;57712;48.752;11.348;2023-04-20T12:40:49;97128.06;;;8.25;100.00
70304;BME280;57712;48.752;11.348;2023-04-20T12:43:16;97123.81;;;8.24;100.00
70304;BME280;57712;48.752;11.348;2023-04-20T12:45:43;97125.75;;;7.96;100.00
70304;BME280;57712;48.752;11.348;2023-04-20T12:48:09;97131.75;;;8.11;100.00
70304;BME280;57712;48.752;11.348;2023-04-20T12:50:36;97129.09;;;8.07;100.00
70304;BME280;57712;48.752;11.348;2023-04-20T12:53:03;97129.91;;;8.35;100.00
70304;BME280;57712;48.752;11.348;2023-04-20T12:55:29;97132.22;;;8.36;100.00
70304;BME280;57712;48.752;11.348;2023-04-20T12:57:56;97130.94;;;8.45;100.00
70304;BME280;57712;48.752;11.348;2023-04-20T13:00:23;97132.66;;;8.82;100.00